Time;durP1;ratioP1;P1;durP2;ratioP2;P2;SDS_P1;SDS_P2;PMS_P1;PMS_P2;Temp;Humidity;BMP_temperature;BMP_pressure;BME280_temperature;BME280_humidity;BME280_pressure;Samples;Min_cycle;Max_cycle;Signal;HPM_P1;HPM_P2
2023/01/20 00:01:32;;;;;;;1.98;1.40;;;;;;;;;;4963022;28;20043;-74
2023/01/20 00:04:01;;;;;;;3.65;1.80;;;;;;;;;;4966929;28;20505;-73
2023/01/20 00:06:28;;;;;;;7.53;2.00;;;;;;;;;;4961727;28;20502;-74
2023/01/20 00:08:59;;;;;;;6.03;2.33;;;;;;;;;;4966683;28;20384;-73
2023/01/20 00:11:26;;;;;;;6.28;2.65;;;;;;;;;;4961806;28;20059;-73
2023/01/20 00:13:55;;;;;;;12.63;3.17;;;;;;;;;;4967309;28;20559;-73
2023/01/20 00:16:22;;;;;;;6.93;3.90;;;;;;;;;;4968647;28;20074;-73
2023/01/20 00:18:49;;;;;;;8.73;4.45;;;;;;;;;;4967315;28;20055;-73
2023/01/20 00:21:18;;;;;;;7.55;4.45;;;;;;;;;;4966191;28;21237;-73
2023/01/20 00:23:46;;;;;;;8.73;4.72;;;;;;;;;;4968576;28;20043;-73
2023/01/20 00:26:14;;;;;;;12.60;5.13;;;;;;;;;;4966669;28;20402;-73
2023/01/20 00:28:42;;;;;;;10.52;5.55;;;;;;;;;;4967655;28;20047;-73
2023/01/20 00:31:13;;;;;;;9.73;5.20;;;;;;;;;;4966773;28;20050;-72
2023/01/20 00:33:41;;;;;;;9.88;6.47;;;;;;;;;;4969935;28;20050;-73
2023/01/20 00:36:09;;;;;;;11.52;6.32;;;;;;;;;;4968160;28;20062;-73
2023/01/20 00:38:38;;;;;;;15.10;6.88;;;;;;;;;;4968150;28;20055;-74
2023/01/20 00:41:05;;;;;;;13.20;6.70;;;;;;;;;;4966891;28;20494;-74
2023/01/20 00:43:32;;;;;;;11.15;7.00;;;;;;;;;;4966795;28;20051;-73
2023/01/20 00:46:00;;;;;;;12.23;7.32;;;;;;;;;;4963652;28;20050;-73
2023/01/20 00:48:27;;;;;;;12.25;7.45;;;;;;;;;;4967167;28;20054;-73
2023/01/20 00:50:54;;;;;;;11.98;6.78;;;;;;;;;;4964378;28;20061;-73
2023/01/20 00:53:22;;;;;;;14.48;7.28;;;;;;;;;;4968425;28;20410;-73
2023/01/20 00:55:50;;;;;;;12.63;7.00;;;;;;;;;;4968183;28;20054;-74
2023/01/20 00:58:17;;;;;;;10.40;6.55;;;;;;;;;;4963163;28;20055;-72
2023/01/20 01:00:47;;;;;;;14.77;7.10;;;;;;;;;;4963189;28;20058;-74
2023/01/20 01:03:14;;;;;;;12.77;7.20;;;;;;;;;;4965141;28;20042;-73
2023/01/20 01:05:42;;;;;;;12.52;6.90;;;;;;;;;;4964076;28;20130;-74
2023/01/20 01:08:09;;;;;;;12.32;6.80;;;;;;;;;;4960588;28;20051;-73
2023/01/20 01:10:36;;;;;;;12.55;7.25;;;;;;;;;;4969568;28;20486;-73
2023/01/20 01:13:05;;;;;;;11.43;6.47;;;;;;;;;;4964888;28;20054;-73
2023/01/20 01:15:33;;;;;;;10.45;6.53;;;;;;;;;;4958838;28;20063;-73
2023/01/20 01:18:00;;;;;;;9.63;6.18;;;;;;;;;;4960659;28;20421;-73
2023/01/20 01:20:28;;;;;;;10.25;6.30;;;;;;;;;;4964782;28;20055;-74
2023/01/20 01:22:56;;;;;;;10.88;6.10;;;;;;;;;;4967216;28;20054;-71
2023/01/20 01:25:23;;;;;;;11.05;5.70;;;;;;;;;;4964562;28;20529;-74
2023/01/20 01:27:50;;;;;;;11.15;5.93;;;;;;;;;;4964677;28;20375;-73
2023/01/20 01:30:19;;;;;;;7.78;4.93;;;;;;;;;;4968680;28;20520;-73
2023/01/20 01:32:46;;;;;;;11.35;5.07;;;;;;;;;;4965522;28;20043;-74
2023/01/20 01:35:13;;;;;;;8.90;5.10;;;;;;;;;;4966908;28;20062;-73
2023/01/20 01:37:40;;;;;;;11.13;4.90;;;;;;;;;;4968414;28;20051;-73
2023/01/20 01:40:09;;;;;;;9.40;4.60;;;;;;;;;;4963050;28;20046;-73
2023/01/20 01:42:36;;;;;;;14.63;4.90;;;;;;;;;;4962020;28;20058;-73
2023/01/20 01:45:22;;;;;;;9.43;4.88;;;;;;;;;;4959498;28;20073;-73
2023/01/20 01:47:51;;;;;;;7.93;4.22;;;;;;;;;;4963987;28;20047;-73
2023/01/20 01:50:20;;;;;;;11.02;4.50;;;;;;;;;;4961926;28;20047;-73
2023/01/20 01:52:49;;;;;;;8.57;4.25;;;;;;;;;;4969367;28;20055;-74
2023/01/20 01:55:17;;;;;;;7.40;4.05;;;;;;;;;;4966734;28;20269;-73
2023/01/20 01:57:44;;;;;;;5.75;3.83;;;;;;;;;;4968024;28;20157;-73
2023/01/20 02:00:12;;;;;;;9.70;3.35;;;;;;;;;;4968784;28;20046;-73
2023/01/20 02:02:42;;;;;;;5.32;3.40;;;;;;;;;;4965919;28;20046;-73
2023/01/20 02:05:10;;;;;;;8.02;3.75;;;;;;;;;;4968471;28;20043;-73
2023/01/20 02:07:38;;;;;;;6.63;2.97;;;;;;;;;;4963699;28;20085;-72
2023/01/20 02:10:05;;;;;;;7.40;3.33;;;;;;;;;;4967308;28;20066;-73
2023/01/20 02:12:33;;;;;;;5.38;3.00;;;;;;;;;;4966404;28;20052;-72
2023/01/20 02:15:03;;;;;;;4.78;3.10;;;;;;;;;;4965167;28;20641;-73
2023/01/20 02:17:31;;;;;;;6.20;3.03;;;;;;;;;;4946929;28;20060;-73
2023/01/20 02:20:10;;;;;;;8.02;3.60;;;;;;;;;;4946460;29;20479;-73
2023/01/20 02:22:42;;;;;;;7.18;3.10;;;;;;;;;;4930155;29;20052;-73
2023/01/20 02:25:21;;;;;;;5.47;3.05;;;;;;;;;;4949073;29;20051;-73
2023/01/20 02:28:00;;;;;;;6.93;3.30;;;;;;;;;;4941139;29;20083;-73
2023/01/20 02:30:39;;;;;;;5.63;2.90;;;;;;;;;;4948375;29;20051;-73
2023/01/20 02:33:11;;;;;;;5.50;3.33;;;;;;;;;;4941302;29;20693;-74
2023/01/20 02:35:41;;;;;;;6.90;3.13;;;;;;;;;;4946628;29;20058;-73
2023/01/20 02:38:13;;;;;;;6.43;3.25;;;;;;;;;;4945430;29;20498;-73
2023/01/20 02:40:43;;;;;;;6.80;3.35;;;;;;;;;;4943324;29;20549;-73
2023/01/20 02:43:12;;;;;;;5.82;3.33;;;;;;;;;;4947115;29;20483;-74
2023/01/20 02:45:44;;;;;;;6.38;3.70;;;;;;;;;;4944595;29;20051;-73
2023/01/20 02:48:16;;;;;;;9.00;3.63;;;;;;;;;;4947736;29;20155;-74
2023/01/20 02:50:46;;;;;;;7.30;3.67;;;;;;;;;;4944375;29;20234;-73
2023/01/20 02:53:15;;;;;;;12.18;4.30;;;;;;;;;;4947018;28;20047;-73
2023/01/20 02:55:44;;;;;;;8.38;4.28;;;;;;;;;;4947037;29;20058;-73
2023/01/20 02:58:13;;;;;;;10.95;4.97;;;;;;;;;;4931407;29;20051;-73
2023/01/20 03:00:43;;;;;;;10.10;4.97;;;;;;;;;;4931473;29;20164;-73
2023/01/20 03:03:12;;;;;;;11.48;5.75;;;;;;;;;;4949480;29;20047;-73
2023/01/20 03:05:43;;;;;;;12.18;6.25;;;;;;;;;;4948543;29;20054;-73
2023/01/20 03:08:12;;;;;;;10.63;6.30;;;;;;;;;;4949352;28;20047;-73
2023/01/20 03:10:40;;;;;;;11.90;7.20;;;;;;;;;;4950874;29;20130;-75
2023/01/20 03:13:12;;;;;;;12.60;6.82;;;;;;;;;;4935804;29;20062;-73
2023/01/20 03:15:43;;;;;;;13.05;6.80;;;;;;;;;;4952134;29;20062;-73
2023/01/20 03:18:11;;;;;;;11.20;7.63;;;;;;;;;;4967511;28;20047;-73
2023/01/20 03:20:38;;;;;;;15.45;7.72;;;;;;;;;;4968832;28;20055;-71
2023/01/20 03:23:07;;;;;;;13.88;7.30;;;;;;;;;;4968929;28;20059;-73
2023/01/20 03:25:34;;;;;;;17.98;8.10;;;;;;;;;;4965720;28;20051;-73
2023/01/20 03:28:01;;;;;;;16.42;9.02;;;;;;;;;;4968423;28;20062;-73
2023/01/20 03:30:28;;;;;;;15.00;8.45;;;;;;;;;;4965582;28;20158;-74
2023/01/20 03:32:56;;;;;;;13.10;8.77;;;;;;;;;;4966369;28;20050;-73
2023/01/20 03:35:24;;;;;;;17.58;9.75;;;;;;;;;;4962099;28;20055;-73
2023/01/20 03:37:51;;;;;;;18.58;10.07;;;;;;;;;;4963545;28;20053;-73
2023/01/20 03:40:20;;;;;;;15.38;9.85;;;;;;;;;;4969792;28;20054;-73
2023/01/20 03:42:53;;;;;;;19.48;10.45;;;;;;;;;;4967591;28;20057;-73
2023/01/20 03:45:25;;;;;;;18.67;10.05;;;;;;;;;;4965468;28;20410;-74
2023/01/20 03:47:57;;;;;;;21.50;10.48;;;;;;;;;;4968262;28;20054;-74
2023/01/20 03:50:36;;;;;;;16.98;10.60;;;;;;;;;;4965938;28;20148;-74
2023/01/20 03:53:07;;;;;;;16.50;10.43;;;;;;;;;;4967748;28;20509;-74
2023/01/20 03:55:37;;;;;;;17.50;11.20;;;;;;;;;;4965745;28;20051;-73
2023/01/20 03:58:05;;;;;;;18.90;10.32;;;;;;;;;;4967209;28;20047;-72
2023/01/20 04:00:34;;;;;;;22.08;11.40;;;;;;;;;;4966711;28;20067;-72
2023/01/20 04:03:04;;;;;;;17.75;10.75;;;;;;;;;;4963699;28;20075;-73
2023/01/20 04:05:31;;;;;;;21.52;11.07;;;;;;;;;;4960731;28;20051;-73
2023/01/20 04:08:00;;;;;;;17.20;10.38;;;;;;;;;;4960488;28;20054;-73
2023/01/20 04:10:29;;;;;;;22.25;11.07;;;;;;;;;;4961378;28;20051;-73
2023/01/20 04:12:58;;;;;;;18.50;11.30;;;;;;;;;;4961700;28;20073;-74
2023/01/20 04:15:26;;;;;;;24.00;12.05;;;;;;;;;;4963474;28;20363;-73
2023/01/20 04:17:53;;;;;;;20.60;11.70;;;;;;;;;;4952433;28;20059;-74
2023/01/20 04:20:20;;;;;;;21.15;12.68;;;;;;;;;;4944425;29;20043;-73
2023/01/20 04:22:49;;;;;;;21.05;11.90;;;;;;;;;;4949335;29;20407;-73
2023/01/20 04:25:21;;;;;;;21.60;12.27;;;;;;;;;;4932042;29;20078;-73
2023/01/20 04:27:48;;;;;;;19.50;11.60;;;;;;;;;;4942326;29;20043;-73
2023/01/20 04:30:17;;;;;;;20.13;11.38;;;;;;;;;;4942132;29;20039;-73
2023/01/20 04:32:44;;;;;;;27.15;11.80;;;;;;;;;;4929896;29;20059;-73
2023/01/20 04:35:13;;;;;;;20.75;11.40;;;;;;;;;;4949422;29;20047;-72
2023/01/20 04:37:40;;;;;;;24.13;13.30;;;;;;;;;;4948487;28;20054;-73
2023/01/20 04:40:08;;;;;;;27.10;13.02;;;;;;;;;;4938789;29;20053;-72
2023/01/20 04:42:35;;;;;;;22.92;13.63;;;;;;;;;;4950443;29;20069;-73
2023/01/20 04:45:02;;;;;;;24.38;14.18;;;;;;;;;;4931217;29;20051;-73
2023/01/20 04:47:32;;;;;;;27.65;14.65;;;;;;;;;;4949855;29;20055;-73
2023/01/20 04:49:59;;;;;;;30.75;14.02;;;;;;;;;;4950274;29;20527;-74
2023/01/20 04:52:27;;;;;;;25.20;14.05;;;;;;;;;;4949538;29;20055;-73
2023/01/20 04:54:54;;;;;;;29.00;15.20;;;;;;;;;;4949986;29;20051;-73
2023/01/20 04:57:21;;;;;;;31.70;14.95;;;;;;;;;;4941869;29;20102;-73
2023/01/20 04:59:48;;;;;;;30.30;15.98;;;;;;;;;;4945180;29;20647;-73
2023/01/20 05:02:16;;;;;;;31.23;15.32;;;;;;;;;;4948527;29;20046;-73
2023/01/20 05:04:44;;;;;;;33.80;15.98;;;;;;;;;;4949455;29;20047;-73
2023/01/20 05:07:12;;;;;;;33.13;16.23;;;;;;;;;;4943810;29;20047;-74
2023/01/20 05:09:39;;;;;;;35.17;16.23;;;;;;;;;;4948263;29;20051;-73
2023/01/20 05:12:06;;;;;;;39.22;16.83;;;;;;;;;;4945234;29;20494;-73
2023/01/20 05:14:33;;;;;;;43.30;17.25;;;;;;;;;;4950367;29;20498;-73
2023/01/20 05:17:01;;;;;;;36.50;17.17;;;;;;;;;;4952802;28;20078;-73
2023/01/20 05:19:28;;;;;;;46.65;18.77;;;;;;;;;;4963397;28;20055;-73
2023/01/20 05:21:57;;;;;;;38.50;18.48;;;;;;;;;;4962774;28;20047;-73
2023/01/20 05:24:24;;;;;;;41.60;19.20;;;;;;;;;;4965948;28;20055;-72
2023/01/20 05:26:51;;;;;;;47.13;20.67;;;;;;;;;;4966360;28;20057;-73
2023/01/20 05:29:18;;;;;;;40.88;19.77;;;;;;;;;;4962893;28;20050;-73
2023/01/20 05:31:46;;;;;;;45.17;20.20;;;;;;;;;;4961677;28;20080;-73
2023/01/20 05:34:14;;;;;;;43.08;21.15;;;;;;;;;;4966071;28;20518;-74
2023/01/20 05:36:42;;;;;;;45.58;20.70;;;;;;;;;;4960788;28;20055;-73
2023/01/20 05:39:10;;;;;;;47.00;20.42;;;;;;;;;;4966018;28;20126;-73
2023/01/20 05:41:37;;;;;;;42.83;19.73;;;;;;;;;;4961901;28;20043;-71
2023/01/20 05:44:05;;;;;;;41.60;19.33;;;;;;;;;;4962110;28;20129;-73
2023/01/20 05:46:32;;;;;;;43.58;20.55;;;;;;;;;;4961760;28;20490;-73
2023/01/20 05:49:01;;;;;;;50.67;22.45;;;;;;;;;;4961188;28;20059;-73
2023/01/20 05:51:28;;;;;;;48.33;22.35;;;;;;;;;;4963875;28;20466;-73
2023/01/20 05:53:55;;;;;;;58.05;23.65;;;;;;;;;;4959861;28;20065;-73
2023/01/20 05:56:24;;;;;;;69.70;26.05;;;;;;;;;;4956395;28;20050;-73
2023/01/20 05:58:54;;;;;;;70.03;25.98;;;;;;;;;;4958300;28;20066;-72
2023/01/20 06:01:22;;;;;;;74.70;26.60;;;;;;;;;;4953133;28;20487;-73
2023/01/20 06:03:49;;;;;;;80.80;28.55;;;;;;;;;;4957021;28;20043;-73
2023/01/20 06:06:17;;;;;;;87.40;28.50;;;;;;;;;;4958063;28;20050;-73
2023/01/20 06:08:44;;;;;;;83.55;28.60;;;;;;;;;;4961140;28;20058;-74
2023/01/20 06:11:13;;;;;;;79.93;28.35;;;;;;;;;;4961182;28;20043;-73
2023/01/20 06:13:42;;;;;;;87.45;27.55;;;;;;;;;;4960578;28;20059;-72
2023/01/20 06:16:09;;;;;;;98.43;27.67;;;;;;;;;;4965003;28;20051;-73
2023/01/20 06:18:36;;;;;;;162.82;29.77;;;;;;;;;;4961783;28;20051;-73
2023/01/20 06:21:03;;;;;;;121.60;29.08;;;;;;;;;;4960093;28;20408;-73
2023/01/20 06:23:31;;;;;;;124.32;30.35;;;;;;;;;;4961478;28;20053;-72
2023/01/20 06:25:59;;;;;;;166.13;28.92;;;;;;;;;;4956844;28;20056;-72
2023/01/20 06:28:26;;;;;;;204.32;31.77;;;;;;;;;;4961690;28;20129;-73
2023/01/20 06:31:00;;;;;;;191.75;33.05;;;;;;;;;;4954535;28;20508;-73
2023/01/20 06:33:28;;;;;;;162.27;30.60;;;;;;;;;;4964994;28;20081;-73
2023/01/20 06:35:55;;;;;;;211.60;36.47;;;;;;;;;;4959896;28;20051;-73
2023/01/20 06:38:23;;;;;;;190.68;30.52;;;;;;;;;;4966763;28;20051;-73
2023/01/20 06:40:50;;;;;;;154.85;30.65;;;;;;;;;;4956990;28;20047;-73
2023/01/20 06:43:17;;;;;;;150.95;31.45;;;;;;;;;;4967984;28;20054;-73
2023/01/20 06:45:45;;;;;;;137.73;30.80;;;;;;;;;;4963600;28;20059;-73
2023/01/20 06:48:13;;;;;;;115.10;30.33;;;;;;;;;;4969356;28;20598;-73
2023/01/20 06:50:40;;;;;;;120.65;31.08;;;;;;;;;;4966586;28;20498;-74
2023/01/20 06:53:08;;;;;;;125.35;31.40;;;;;;;;;;4967496;28;20050;-73
2023/01/20 06:55:35;;;;;;;123.63;32.03;;;;;;;;;;4970079;28;20109;-73
2023/01/20 06:58:03;;;;;;;143.18;33.80;;;;;;;;;;4969776;28;20062;-73
2023/01/20 07:00:30;;;;;;;130.07;34.05;;;;;;;;;;4966221;28;20070;-73
2023/01/20 07:02:57;;;;;;;130.23;33.15;;;;;;;;;;4967436;28;20055;-73
2023/01/20 07:05:26;;;;;;;124.45;33.08;;;;;;;;;;4961546;28;20063;-73
2023/01/20 07:07:53;;;;;;;122.38;34.08;;;;;;;;;;4964073;28;20545;-73
2023/01/20 07:10:20;;;;;;;125.25;33.67;;;;;;;;;;4965318;28;20129;-73
2023/01/20 07:12:47;;;;;;;140.40;35.55;;;;;;;;;;4967422;28;20050;-73
2023/01/20 07:15:15;;;;;;;138.63;33.85;;;;;;;;;;4965178;28;20078;-73
2023/01/20 07:17:42;;;;;;;131.32;34.45;;;;;;;;;;4954666;28;20055;-73
2023/01/20 07:20:10;;;;;;;138.40;36.42;;;;;;;;;;4930950;29;20368;-73
2023/01/20 07:22:38;;;;;;;130.68;36.08;;;;;;;;;;4948830;29;20054;-72
2023/01/20 07:25:06;;;;;;;122.47;35.00;;;;;;;;;;4945038;29;20051;-73
2023/01/20 07:27:33;;;;;;;134.80;37.30;;;;;;;;;;4945138;28;20501;-74
2023/01/20 07:30:01;;;;;;;138.73;38.03;;;;;;;;;;4950103;29;20051;-73
2023/01/20 07:32:30;;;;;;;133.27;37.15;;;;;;;;;;4950282;28;20146;-73
2023/01/20 07:34:57;;;;;;;130.23;35.03;;;;;;;;;;4947011;29;20439;-71
2023/01/20 07:37:24;;;;;;;127.50;37.70;;;;;;;;;;4948006;29;20066;-73
2023/01/20 07:39:53;;;;;;;124.53;36.95;;;;;;;;;;4930937;29;20047;-73
2023/01/20 07:42:20;;;;;;;127.88;36.92;;;;;;;;;;4944493;28;20051;-73
2023/01/20 07:44:47;;;;;;;125.30;36.00;;;;;;;;;;4947459;29;20107;-72
2023/01/20 07:47:14;;;;;;;128.23;37.25;;;;;;;;;;4947051;29;20047;-73
2023/01/20 07:49:42;;;;;;;138.73;40.75;;;;;;;;;;4944883;29;20047;-73
2023/01/20 07:52:09;;;;;;;134.55;40.80;;;;;;;;;;4942361;29;20055;-73
2023/01/20 07:54:36;;;;;;;134.63;39.17;;;;;;;;;;4943447;28;20055;-73
2023/01/20 07:57:05;;;;;;;125.20;39.00;;;;;;;;;;4949350;29;20043;-73
2023/01/20 07:59:32;;;;;;;129.15;39.58;;;;;;;;;;4947047;29;20130;-73
2023/01/20 08:01:59;;;;;;;132.35;38.05;;;;;;;;;;4949672;29;20109;-72
2023/01/20 08:04:26;;;;;;;139.00;39.40;;;;;;;;;;4951424;29;20047;-73
2023/01/20 08:06:54;;;;;;;124.40;38.15;;;;;;;;;;4932581;29;20161;-72
2023/01/20 08:09:21;;;;;;;136.25;38.40;;;;;;;;;;4951023;28;20422;-72
2023/01/20 08:11:48;;;;;;;126.85;36.80;;;;;;;;;;4950851;29;20044;-73
2023/01/20 08:14:17;;;;;;;134.15;37.33;;;;;;;;;;4925756;29;20085;-73
2023/01/20 08:16:44;;;;;;;119.82;37.95;;;;;;;;;;4948453;28;20063;-72
2023/01/20 08:19:11;;;;;;;124.93;36.88;;;;;;;;;;4944934;28;20051;-73
2023/01/20 08:21:39;;;;;;;120.25;36.47;;;;;;;;;;4927225;29;20411;-72
2023/01/20 08:24:06;;;;;;;122.28;36.70;;;;;;;;;;4949351;28;20794;-72
2023/01/20 08:26:34;;;;;;;122.47;35.72;;;;;;;;;;4950955;28;20054;-71
2023/01/20 08:29:04;;;;;;;121.65;36.35;;;;;;;;;;4944234;28;20074;-72
2023/01/20 08:31:33;;;;;;;119.18;35.80;;;;;;;;;;4946736;28;20047;-72
2023/01/20 08:34:00;;;;;;;117.18;36.55;;;;;;;;;;4933438;28;20509;-72
2023/01/20 08:36:28;;;;;;;123.03;36.38;;;;;;;;;;4943239;29;20056;-72
2023/01/20 08:38:56;;;;;;;120.65;36.50;;;;;;;;;;4951697;28;20062;-72
2023/01/20 08:41:25;;;;;;;113.70;35.50;;;;;;;;;;4945456;29;20051;-73
2023/01/20 08:43:52;;;;;;;113.93;36.15;;;;;;;;;;4946758;28;20061;-72
2023/01/20 08:46:21;;;;;;;117.38;36.55;;;;;;;;;;4943312;28;20090;-71
2023/01/20 08:48:50;;;;;;;112.38;35.22;;;;;;;;;;4948049;29;20055;-73
2023/01/20 08:51:18;;;;;;;115.60;36.50;;;;;;;;;;4943882;28;20058;-72
2023/01/20 08:53:45;;;;;;;125.05;36.17;;;;;;;;;;4942737;28;20512;-72
2023/01/20 08:56:13;;;;;;;113.70;35.25;;;;;;;;;;4946919;28;20052;-71
2023/01/20 08:58:41;;;;;;;122.40;36.60;;;;;;;;;;4949514;28;20051;-73
2023/01/20 09:01:09;;;;;;;116.82;36.72;;;;;;;;;;4948694;28;20394;-72
2023/01/20 09:03:36;;;;;;;115.25;34.70;;;;;;;;;;4947694;28;20098;-72
2023/01/20 09:06:05;;;;;;;123.53;37.40;;;;;;;;;;4937315;28;20494;-73
2023/01/20 09:08:33;;;;;;;127.85;38.15;;;;;;;;;;4951998;28;20561;-72
2023/01/20 09:11:04;;;;;;;120.25;36.63;;;;;;;;;;4929011;29;20047;-73
2023/01/20 09:13:31;;;;;;;126.03;36.72;;;;;;;;;;4943121;29;20051;-73
2023/01/20 09:15:58;;;;;;;113.07;35.17;;;;;;;;;;4949277;28;20058;-73
2023/01/20 09:18:26;;;;;;;116.75;35.45;;;;;;;;;;4965074;28;20068;-73
2023/01/20 09:20:53;;;;;;;114.00;35.50;;;;;;;;;;4960482;28;20090;-73
2023/01/20 09:23:22;;;;;;;120.10;35.38;;;;;;;;;;4959847;28;20150;-72
2023/01/20 09:25:49;;;;;;;108.90;34.40;;;;;;;;;;4961073;28;20053;-73
2023/01/20 09:28:17;;;;;;;123.15;36.63;;;;;;;;;;4966279;28;20066;-73
2023/01/20 09:30:44;;;;;;;116.45;35.75;;;;;;;;;;4962555;28;20430;-73
2023/01/20 09:33:11;;;;;;;108.72;34.75;;;;;;;;;;4966413;28;20051;-73
2023/01/20 09:35:39;;;;;;;117.68;36.15;;;;;;;;;;4957500;28;20047;-73
2023/01/20 09:43:54;;;;;;;114.95;35.30;;;;;;;;;;4967072;28;20059;-74
2023/01/20 09:46:26;;;;;;;113.43;35.03;;;;;;;;;;4961984;28;20051;-72
2023/01/20 09:54:35;;;;;;;109.78;33.40;;;;;;;;;;4968484;28;20046;-73
2023/01/20 09:57:07;;;;;;;110.90;32.25;;;;;;;;;;4966111;28;20039;-73
2023/01/20 09:59:36;;;;;;;103.50;33.20;;;;;;;;;;4963858;28;20077;-73
2023/01/20 10:02:07;;;;;;;98.53;32.55;;;;;;;;;;4966752;28;20062;-74
2023/01/20 10:04:37;;;;;;;106.43;33.38;;;;;;;;;;4966449;28;20065;-73
2023/01/20 10:07:09;;;;;;;92.65;30.75;;;;;;;;;;4960868;28;20114;-73
2023/01/20 10:09:39;;;;;;;108.82;32.15;;;;;;;;;;4964091;28;20134;-73
2023/01/20 10:12:10;;;;;;;99.65;31.70;;;;;;;;;;4967044;28;20047;-73
2023/01/20 10:14:39;;;;;;;95.15;31.42;;;;;;;;;;4964175;28;20050;-74
2023/01/20 10:17:08;;;;;;;104.75;31.40;;;;;;;;;;4966865;28;20114;-73
2023/01/20 10:19:37;;;;;;;100.32;31.17;;;;;;;;;;4970773;28;20521;-72
2023/01/20 10:22:07;;;;;;;90.22;30.10;;;;;;;;;;4972442;28;20054;-74
2023/01/20 10:24:37;;;;;;;95.53;29.08;;;;;;;;;;4969012;28;20059;-73
2023/01/20 10:27:05;;;;;;;90.25;30.00;;;;;;;;;;4970151;28;20055;-74
2023/01/20 10:29:35;;;;;;;89.78;29.98;;;;;;;;;;4971164;28;20047;-74
2023/01/20 10:32:03;;;;;;;80.15;29.13;;;;;;;;;;4970977;28;20055;-73
2023/01/20 10:34:33;;;;;;;83.53;28.73;;;;;;;;;;4970161;28;20054;-73
2023/01/20 10:37:03;;;;;;;89.93;28.92;;;;;;;;;;4970287;28;20382;-74
2023/01/20 10:39:34;;;;;;;84.03;28.88;;;;;;;;;;4963619;28;20057;-73
2023/01/20 10:42:04;;;;;;;82.03;28.33;;;;;;;;;;4965749;28;20049;-74
2023/01/20 10:44:35;;;;;;;89.78;29.25;;;;;;;;;;4965433;28;20074;-73
2023/01/20 10:47:17;;;;;;;89.47;30.00;;;;;;;;;;4970212;28;20486;-75
2023/01/20 10:50:05;;;;;;;79.63;27.92;;;;;;;;;;4965878;28;20051;-74
2023/01/20 10:52:39;;;;;;;82.88;28.55;;;;;;;;;;4960338;28;20061;-77
2023/01/20 10:55:13;;;;;;;84.75;29.00;;;;;;;;;;4966087;28;20398;-72
2023/01/20 10:57:41;;;;;;;86.45;28.85;;;;;;;;;;4965136;28;20043;-72
2023/01/20 11:00:17;;;;;;;84.93;30.10;;;;;;;;;;4968383;28;20054;-72
2023/01/20 11:02:47;;;;;;;88.97;29.33;;;;;;;;;;4963943;28;20062;-72
2023/01/20 11:05:17;;;;;;;77.72;28.17;;;;;;;;;;4967887;28;20059;-72
2023/01/20 11:07:45;;;;;;;81.40;28.20;;;;;;;;;;4969736;28;20070;-72
2023/01/20 11:10:15;;;;;;;80.63;26.98;;;;;;;;;;4968802;28;20053;-72
2023/01/20 11:12:43;;;;;;;75.53;27.52;;;;;;;;;;4967526;28;20066;-72
2023/01/20 11:15:17;;;;;;;85.22;29.17;;;;;;;;;;4967825;28;20066;-72
2023/01/20 11:17:45;;;;;;;76.45;26.45;;;;;;;;;;4968071;28;20090;-72
2023/01/20 11:20:19;;;;;;;81.90;28.05;;;;;;;;;;4965245;28;20609;-72
2023/01/20 11:22:47;;;;;;;75.15;28.55;;;;;;;;;;4966691;28;20563;-72
2023/01/20 11:25:23;;;;;;;79.13;26.75;;;;;;;;;;4966190;28;20047;-72
2023/01/20 11:27:51;;;;;;;77.95;28.23;;;;;;;;;;4967502;28;20546;-72
2023/01/20 11:30:26;;;;;;;76.72;27.50;;;;;;;;;;4966727;28;20058;-72
2023/01/20 11:33:10;;;;;;;75.28;27.63;;;;;;;;;;4964251;28;20050;-72
2023/01/20 11:35:37;;;;;;;80.25;27.23;;;;;;;;;;4964768;28;20149;-72
2023/01/20 11:38:19;;;;;;;78.43;27.70;;;;;;;;;;4963482;28;20062;-71
2023/01/20 11:40:52;;;;;;;75.28;27.02;;;;;;;;;;4969225;28;20039;-71
2023/01/20 11:43:28;;;;;;;76.35;26.00;;;;;;;;;;4964597;28;20061;-71
2023/01/20 11:46:10;;;;;;;68.47;26.55;;;;;;;;;;4969083;28;20065;-71
2023/01/20 11:48:37;;;;;;;68.60;27.38;;;;;;;;;;4963462;28;20057;-71
2023/01/20 11:51:04;;;;;;;65.97;25.52;;;;;;;;;;4967532;28;20062;-71
2023/01/20 11:53:33;;;;;;;69.25;25.17;;;;;;;;;;4968251;28;20051;-71
2023/01/20 11:56:01;;;;;;;67.07;24.75;;;;;;;;;;4970333;28;20046;-72
2023/01/20 11:58:32;;;;;;;70.85;25.13;;;;;;;;;;4969642;28;20062;-72
2023/01/20 12:01:02;;;;;;;72.15;25.45;;;;;;;;;;4967345;28;20055;-71
2023/01/20 12:03:46;;;;;;;71.35;26.67;;;;;;;;;;4969774;28;20061;-71
2023/01/20 12:06:15;;;;;;;70.57;26.05;;;;;;;;;;4967271;28;20042;-72
2023/01/20 12:08:45;;;;;;;66.38;25.05;;;;;;;;;;4977344;28;20060;-72
2023/01/20 12:11:14;;;;;;;64.03;25.80;;;;;;;;;;4965374;28;20498;-72
2023/01/20 12:16:33;;;;;;;73.03;25.70;;;;;;;;;;4968382;28;20914;-71
2023/01/20 12:19:03;;;;;;;70.70;27.73;;;;;;;;;;4966511;28;20133;-71
2023/01/20 12:21:34;;;;;;;77.20;26.40;;;;;;;;;;4968057;28;20046;-71
2023/01/20 12:24:04;;;;;;;67.93;25.75;;;;;;;;;;4962983;28;20213;-71
2023/01/20 12:26:35;;;;;;;69.50;26.45;;;;;;;;;;4968736;28;20379;-71
2023/01/20 12:29:03;;;;;;;63.65;23.85;;;;;;;;;;4963918;28;20065;-71
2023/01/20 12:31:32;;;;;;;64.78;24.52;;;;;;;;;;4968112;28;20047;-72
2023/01/20 12:34:01;;;;;;;57.17;23.63;;;;;;;;;;4965457;28;20054;-72
2023/01/20 12:36:46;;;;;;;66.13;23.67;;;;;;;;;;4959327;28;20067;-72
2023/01/20 12:39:28;;;;;;;61.70;23.70;;;;;;;;;;4962211;28;20055;-71
2023/01/20 12:42:21;;;;;;;63.50;24.08;;;;;;;;;;4958105;28;20043;-72
2023/01/20 12:44:50;;;;;;;54.85;21.25;;;;;;;;;;4963466;28;20046;-72
2023/01/20 12:47:24;;;;;;;50.83;21.98;;;;;;;;;;4966420;28;20146;-72
2023/01/20 12:49:58;;;;;;;53.13;21.92;;;;;;;;;;4969592;28;20175;-72
2023/01/20 12:52:31;;;;;;;52.10;21.75;;;;;;;;;;4964557;28;20147;-72
2023/01/20 12:55:03;;;;;;;50.40;21.35;;;;;;;;;;4961554;28;20053;-72
2023/01/20 12:57:37;;;;;;;52.90;22.23;;;;;;;;;;4966078;28;20055;-71
2023/01/20 13:00:14;;;;;;;53.35;20.90;;;;;;;;;;4966593;28;20490;-71
2023/01/20 13:02:52;;;;;;;50.42;20.95;;;;;;;;;;4963630;28;20057;-71
2023/01/20 13:05:47;;;;;;;50.47;21.55;;;;;;;;;;4961081;28;20061;-71
2023/01/20 13:08:18;;;;;;;46.60;19.70;;;;;;;;;;4925191;28;20043;-71
2023/01/20 13:11:01;;;;;;;50.00;20.27;;;;;;;;;;4965718;28;20486;-71
2023/01/20 13:13:35;;;;;;;55.33;20.53;;;;;;;;;;4956027;28;20047;-71
2023/01/20 13:16:07;;;;;;;50.10;20.75;;;;;;;;;;4979753;28;20051;-71
2023/01/20 13:18:41;;;;;;;61.05;23.75;;;;;;;;;;4957717;28;20530;-71
2023/01/20 13:21:09;;;;;;;;;;;;;;;;;;4976437;28;20433;-71
2023/01/20 13:23:37;;;;;;;47.30;19.63;;;;;;;;;;4959865;28;19922;-72
2023/01/20 13:26:05;;;;;;;45.97;18.40;;;;;;;;;;4959974;28;20145;-71
2023/01/20 13:28:33;;;;;;;45.58;19.10;;;;;;;;;;4963254;28;20077;-72
2023/01/20 13:31:01;;;;;;;47.65;19.35;;;;;;;;;;4960266;28;20063;-71
2023/01/20 13:33:33;;;;;;;46.95;18.00;;;;;;;;;;4962787;28;20067;-71
2023/01/20 13:36:13;;;;;;;41.65;18.35;;;;;;;;;;4964036;28;20142;-71
2023/01/20 13:38:41;;;;;;;46.95;18.15;;;;;;;;;;4960114;28;20063;-71
2023/01/20 13:41:09;;;;;;;43.72;18.63;;;;;;;;;;4964953;28;20055;-72
2023/01/20 13:43:57;;;;;;;40.30;16.83;;;;;;;;;;4961196;28;20563;-72
2023/01/20 13:46:43;;;;;;;41.42;17.98;;;;;;;;;;4964346;28;20054;-72
2023/01/20 13:49:31;;;;;;;39.88;16.90;;;;;;;;;;4961102;28;20062;-71
2023/01/20 13:52:00;;;;;;;39.00;17.15;;;;;;;;;;4950797;28;20097;-71
2023/01/20 13:54:51;;;;;;;47.58;17.52;;;;;;;;;;4958122;28;20483;-71
2023/01/20 13:57:35;;;;;;;43.72;18.13;;;;;;;;;;4942490;28;20054;-72
2023/01/20 14:00:11;;;;;;;39.17;17.83;;;;;;;;;;4963514;28;20413;-72
2023/01/20 14:02:39;;;;;;;40.45;18.05;;;;;;;;;;4965349;28;20066;-72
2023/01/20 14:05:19;;;;;;;37.38;17.42;;;;;;;;;;4953096;28;20055;-72
2023/01/20 14:07:48;;;;;;;39.30;17.67;;;;;;;;;;4957863;28;20055;-72
2023/01/20 14:10:15;;;;;;;42.78;17.30;;;;;;;;;;4962278;28;20054;-72
2023/01/20 14:12:43;;;;;;;41.65;18.48;;;;;;;;;;4962749;28;20051;-71
2023/01/20 14:15:23;;;;;;;48.65;18.75;;;;;;;;;;4965314;28;20471;-71
2023/01/20 14:17:53;;;;;;;43.30;17.60;;;;;;;;;;4956632;28;20051;-71
2023/01/20 14:20:22;;;;;;;51.05;19.88;;;;;;;;;;4965522;28;20047;-71
2023/01/20 14:22:51;;;;;;;44.08;19.50;;;;;;;;;;4962108;28;20047;-71
2023/01/20 14:25:22;;;;;;;42.10;18.75;;;;;;;;;;4960932;28;20050;-71
2023/01/20 14:27:50;;;;;;;46.30;19.30;;;;;;;;;;4967557;28;20050;-71
2023/01/20 14:30:20;;;;;;;41.00;19.33;;;;;;;;;;4956242;28;20081;-71
2023/01/20 14:32:47;;;;;;;41.67;18.85;;;;;;;;;;4961557;28;20051;-71
2023/01/20 14:35:16;;;;;;;42.42;19.48;;;;;;;;;;4964999;28;20425;-71
2023/01/20 14:37:44;;;;;;;47.33;20.13;;;;;;;;;;4960120;28;20058;-71
2023/01/20 14:40:22;;;;;;;48.92;18.92;;;;;;;;;;4961623;28;20142;-72
2023/01/20 14:42:55;;;;;;;46.92;18.73;;;;;;;;;;4960786;28;20046;-72
2023/01/20 14:45:23;;;;;;;49.00;19.75;;;;;;;;;;4965374;28;20051;-72
2023/01/20 14:47:51;;;;;;;40.58;17.92;;;;;;;;;;4964271;28;20494;-72